sensor_id;sensor_type;location;lat;lon;timestamp;temperature;humidity
16402;DHT22;8310;44.626;11.176;2024-03-25T00:00:38;11.10;52.60
16402;DHT22;8310;44.626;11.176;2024-03-25T00:03:05;11.00;52.70
16402;DHT22;8310;44.626;11.176;2024-03-25T00:05:33;11.00;52.70
16402;DHT22;8310;44.626;11.176;2024-03-25T00:07:58;10.90;52.70
16402;DHT22;8310;44.626;11.176;2024-03-25T00:10:26;10.90;52.80
16402;DHT22;8310;44.626;11.176;2024-03-25T00:12:52;11.00;52.90
16402;DHT22;8310;44.626;11.176;2024-03-25T00:15:21;11.00;52.80
16402;DHT22;8310;44.626;11.176;2024-03-25T00:17:46;10.90;52.70
16402;DHT22;8310;44.626;11.176;2024-03-25T00:20:15;10.90;52.60
16402;DHT22;8310;44.626;11.176;2024-03-25T00:22:41;10.80;53.10
16402;DHT22;8310;44.626;11.176;2024-03-25T00:25:08;10.80;52.60
16402;DHT22;8310;44.626;11.176;2024-03-25T00:27:34;10.60;52.60
16402;DHT22;8310;44.626;11.176;2024-03-25T00:30:02;10.50;52.60
16402;DHT22;8310;44.626;11.176;2024-03-25T00:32:28;10.40;52.50
16402;DHT22;8310;44.626;11.176;2024-03-25T00:34:55;10.40;52.60
16402;DHT22;8310;44.626;11.176;2024-03-25T00:37:22;10.40;52.60
16402;DHT22;8310;44.626;11.176;2024-03-25T00:39:50;10.40;52.60
16402;DHT22;8310;44.626;11.176;2024-03-25T00:42:15;10.40;52.60
16402;DHT22;8310;44.626;11.176;2024-03-25T00:44:43;10.40;52.60
16402;DHT22;8310;44.626;11.176;2024-03-25T00:47:09;10.40;53.10
16402;DHT22;8310;44.626;11.176;2024-03-25T00:49:36;10.40;52.40
16402;DHT22;8310;44.626;11.176;2024-03-25T00:52:01;10.40;52.20
16402;DHT22;8310;44.626;11.176;2024-03-25T00:54:30;10.30;52.10
16402;DHT22;8310;44.626;11.176;2024-03-25T00:56:56;10.20;52.10
16402;DHT22;8310;44.626;11.176;2024-03-25T00:59:23;10.20;52.90
16402;DHT22;8310;44.626;11.176;2024-03-25T01:01:49;10.20;52.50
16402;DHT22;8310;44.626;11.176;2024-03-25T01:04:16;10.20;52.50
16402;DHT22;8310;44.626;11.176;2024-03-25T01:06:43;10.30;52.60
16402;DHT22;8310;44.626;11.176;2024-03-25T01:09:10;10.30;52.60
16402;DHT22;8310;44.626;11.176;2024-03-25T01:11:38;10.30;52.70
16402;DHT22;8310;44.626;11.176;2024-03-25T01:14:05;10.40;52.80
16402;DHT22;8310;44.626;11.176;2024-03-25T01:16:31;10.40;52.70
16402;DHT22;8310;44.626;11.176;2024-03-25T01:18:59;10.40;52.70
16402;DHT22;8310;44.626;11.176;2024-03-25T01:21:25;10.40;52.70
16402;DHT22;8310;44.626;11.176;2024-03-25T01:23:52;10.30;52.60
16402;DHT22;8310;44.626;11.176;2024-03-25T01:26:18;10.30;52.50
16402;DHT22;8310;44.626;11.176;2024-03-25T01:28:46;10.20;52.50
16402;DHT22;8310;44.626;11.176;2024-03-25T01:31:12;10.10;52.50
16402;DHT22;8310;44.626;11.176;2024-03-25T01:33:39;10.00;52.50
16402;DHT22;8310;44.626;11.176;2024-03-25T01:36:06;9.90;52.50
16402;DHT22;8310;44.626;11.176;2024-03-25T01:38:33;9.90;52.60
16402;DHT22;8310;44.626;11.176;2024-03-25T01:41:06;9.90;52.60
16402;DHT22;8310;44.626;11.176;2024-03-25T01:43:33;9.90;52.60
16402;DHT22;8310;44.626;11.176;2024-03-25T01:46:01;9.90;52.60
16402;DHT22;8310;44.626;11.176;2024-03-25T01:48:28;10.00;52.70
16402;DHT22;8310;44.626;11.176;2024-03-25T01:50:54;10.00;52.70
16402;DHT22;8310;44.626;11.176;2024-03-25T01:53:22;10.00;53.40
16402;DHT22;8310;44.626;11.176;2024-03-25T01:55:48;10.00;52.80
16402;DHT22;8310;44.626;11.176;2024-03-25T01:58:16;10.00;52.70
16402;DHT22;8310;44.626;11.176;2024-03-25T02:00:42;10.00;52.60
16402;DHT22;8310;44.626;11.176;2024-03-25T02:03:11;10.00;52.60
16402;DHT22;8310;44.626;11.176;2024-03-25T02:05:37;10.00;52.60
16402;DHT22;8310;44.626;11.176;2024-03-25T02:08:04;9.90;52.40
16402;DHT22;8310;44.626;11.176;2024-03-25T02:10:31;9.80;52.30
16402;DHT22;8310;44.626;11.176;2024-03-25T02:12:59;9.70;52.40
16402;DHT22;8310;44.626;11.176;2024-03-25T02:15:25;9.60;52.40
16402;DHT22;8310;44.626;11.176;2024-03-25T02:17:53;9.60;52.50
16402;DHT22;8310;44.626;11.176;2024-03-25T02:20:20;9.60;52.50
16402;DHT22;8310;44.626;11.176;2024-03-25T02:22:47;9.60;52.60
16402;DHT22;8310;44.626;11.176;2024-03-25T02:25:14;9.50;52.50
16402;DHT22;8310;44.626;11.176;2024-03-25T02:27:42;9.50;52.50
16402;DHT22;8310;44.626;11.176;2024-03-25T02:30:09;9.50;52.50
16402;DHT22;8310;44.626;11.176;2024-03-25T02:32:39;9.50;52.60
16402;DHT22;8310;44.626;11.176;2024-03-25T02:35:06;9.40;52.50
16402;DHT22;8310;44.626;11.176;2024-03-25T02:37:34;9.40;52.20
16402;DHT22;8310;44.626;11.176;2024-03-25T02:40:00;9.20;51.90
16402;DHT22;8310;44.626;11.176;2024-03-25T02:42:28;9.00;51.90
16402;DHT22;8310;44.626;11.176;2024-03-25T02:44:56;8.80;52.00
16402;DHT22;8310;44.626;11.176;2024-03-25T02:47:23;8.80;52.20
16402;DHT22;8310;44.626;11.176;2024-03-25T02:49:49;8.60;52.30
16402;DHT22;8310;44.626;11.176;2024-03-25T02:52:17;8.50;52.50
16402;DHT22;8310;44.626;11.176;2024-03-25T02:54:42;8.50;52.70
16402;DHT22;8310;44.626;11.176;2024-03-25T02:57:09;8.40;52.90
16402;DHT22;8310;44.626;11.176;2024-03-25T02:59:35;8.20;52.60
16402;DHT22;8310;44.626;11.176;2024-03-25T03:02:07;8.10;52.70
16402;DHT22;8310;44.626;11.176;2024-03-25T03:04:33;8.10;53.10
16402;DHT22;8310;44.626;11.176;2024-03-25T03:07:00;8.00;52.80
16402;DHT22;8310;44.626;11.176;2024-03-25T03:09:26;8.00;52.60
16402;DHT22;8310;44.626;11.176;2024-03-25T03:11:53;8.10;52.70
16402;DHT22;8310;44.626;11.176;2024-03-25T03:14:19;8.10;52.80
16402;DHT22;8310;44.626;11.176;2024-03-25T03:16:46;8.10;53.00
16402;DHT22;8310;44.626;11.176;2024-03-25T03:19:16;8.00;53.00
16402;DHT22;8310;44.626;11.176;2024-03-25T03:21:43;7.90;52.80
16402;DHT22;8310;44.626;11.176;2024-03-25T03:24:09;7.90;52.90
16402;DHT22;8310;44.626;11.176;2024-03-25T03:26:36;7.80;52.80
16402;DHT22;8310;44.626;11.176;2024-03-25T03:29:02;7.80;52.80
16402;DHT22;8310;44.626;11.176;2024-03-25T03:31:29;7.80;52.70
16402;DHT22;8310;44.626;11.176;2024-03-25T03:33:55;7.80;52.80
16402;DHT22;8310;44.626;11.176;2024-03-25T03:36:24;7.80;52.80
16402;DHT22;8310;44.626;11.176;2024-03-25T03:38:50;7.90;52.90
16402;DHT22;8310;44.626;11.176;2024-03-25T03:41:17;7.90;52.90
16402;DHT22;8310;44.626;11.176;2024-03-25T03:43:43;8.00;53.00
16402;DHT22;8310;44.626;11.176;2024-03-25T03:46:10;8.00;52.90
16402;DHT22;8310;44.626;11.176;2024-03-25T03:48:36;8.00;52.90
16402;DHT22;8310;44.626;11.176;2024-03-25T03:51:03;8.00;52.90
16402;DHT22;8310;44.626;11.176;2024-03-25T03:53:31;8.00;52.90
16402;DHT22;8310;44.626;11.176;2024-03-25T03:55:59;8.10;52.90
16402;DHT22;8310;44.626;11.176;2024-03-25T03:58:27;8.10;52.90
16402;DHT22;8310;44.626;11.176;2024-03-25T04:00:54;8.10;52.90
16402;DHT22;8310;44.626;11.176;2024-03-25T04:03:20;8.10;52.90
16402;DHT22;8310;44.626;11.176;2024-03-25T04:05:47;8.20;53.00
16402;DHT22;8310;44.626;11.176;2024-03-25T04:08:13;8.10;52.70
16402;DHT22;8310;44.626;11.176;2024-03-25T04:10:42;8.00;52.70
16402;DHT22;8310;44.626;11.176;2024-03-25T04:13:08;7.90;52.60
16402;DHT22;8310;44.626;11.176;2024-03-25T04:15:36;7.80;52.60
16402;DHT22;8310;44.626;11.176;2024-03-25T04:18:02;7.80;52.70
16402;DHT22;8310;44.626;11.176;2024-03-25T04:20:30;7.80;52.80
16402;DHT22;8310;44.626;11.176;2024-03-25T04:22:55;7.90;52.80
16402;DHT22;8310;44.626;11.176;2024-03-25T04:25:22;7.90;52.80
16402;DHT22;8310;44.626;11.176;2024-03-25T04:27:50;8.00;52.70
16402;DHT22;8310;44.626;11.176;2024-03-25T04:30:17;7.90;52.50
16402;DHT22;8310;44.626;11.176;2024-03-25T04:32:44;7.90;52.60
16402;DHT22;8310;44.626;11.176;2024-03-25T04:35:12;7.90;52.70
16402;DHT22;8310;44.626;11.176;2024-03-25T04:37:37;8.00;52.80
16402;DHT22;8310;44.626;11.176;2024-03-25T04:40:03;8.00;52.70
16402;DHT22;8310;44.626;11.176;2024-03-25T04:42:29;7.90;52.20
16402;DHT22;8310;44.626;11.176;2024-03-25T04:44:57;7.70;52.00
16402;DHT22;8310;44.626;11.176;2024-03-25T04:47:23;7.60;52.20
16402;DHT22;8310;44.626;11.176;2024-03-25T04:49:48;7.50;52.30
16402;DHT22;8310;44.626;11.176;2024-03-25T04:52:14;7.50;52.60
16402;DHT22;8310;44.626;11.176;2024-03-25T04:54:41;7.50;52.70
16402;DHT22;8310;44.626;11.176;2024-03-25T04:57:07;7.60;52.80
16402;DHT22;8310;44.626;11.176;2024-03-25T04:59:33;7.60;53.00
16402;DHT22;8310;44.626;11.176;2024-03-25T05:02:00;7.50;53.00
16402;DHT22;8310;44.626;11.176;2024-03-25T05:04:26;7.50;52.80
16402;DHT22;8310;44.626;11.176;2024-03-25T05:06:52;7.40;52.80
16402;DHT22;8310;44.626;11.176;2024-03-25T05:09:18;7.40;52.80
16402;DHT22;8310;44.626;11.176;2024-03-25T05:11:44;7.40;52.90
16402;DHT22;8310;44.626;11.176;2024-03-25T05:14:10;7.40;52.80
16402;DHT22;8310;44.626;11.176;2024-03-25T05:16:36;7.40;52.90
16402;DHT22;8310;44.626;11.176;2024-03-25T05:19:03;7.40;52.90
16402;DHT22;8310;44.626;11.176;2024-03-25T05:21:29;7.30;53.00
16402;DHT22;8310;44.626;11.176;2024-03-25T05:23:55;7.30;53.20
16402;DHT22;8310;44.626;11.176;2024-03-25T05:26:21;7.30;53.30
16402;DHT22;8310;44.626;11.176;2024-03-25T05:28:48;7.20;53.40
16402;DHT22;8310;44.626;11.176;2024-03-25T05:31:17;7.20;53.50
16402;DHT22;8310;44.626;11.176;2024-03-25T05:33:43;7.20;53.40
16402;DHT22;8310;44.626;11.176;2024-03-25T05:36:10;7.10;53.30
16402;DHT22;8310;44.626;11.176;2024-03-25T05:38:36;7.10;53.30
16402;DHT22;8310;44.626;11.176;2024-03-25T05:41:02;7.10;53.40
16402;DHT22;8310;44.626;11.176;2024-03-25T05:43:28;7.20;53.60
16402;DHT22;8310;44.626;11.176;2024-03-25T05:45:54;7.30;53.80
16402;DHT22;8310;44.626;11.176;2024-03-25T05:48:20;7.20;54.10
16402;DHT22;8310;44.626;11.176;2024-03-25T05:50:46;7.30;54.40
16402;DHT22;8310;44.626;11.176;2024-03-25T05:53:13;7.40;54.40
16402;DHT22;8310;44.626;11.176;2024-03-25T05:55:39;7.50;55.10
16402;DHT22;8310;44.626;11.176;2024-03-25T05:58:05;7.80;56.10
16402;DHT22;8310;44.626;11.176;2024-03-25T06:00:31;8.10;56.70
16402;DHT22;8310;44.626;11.176;2024-03-25T06:02:57;8.50;57.40
16402;DHT22;8310;44.626;11.176;2024-03-25T06:05:23;9.00;58.20
16402;DHT22;8310;44.626;11.176;2024-03-25T06:07:48;9.50;58.90
16402;DHT22;8310;44.626;11.176;2024-03-25T06:10:16;9.90;59.20
16402;DHT22;8310;44.626;11.176;2024-03-25T06:12:42;10.30;59.10
16402;DHT22;8310;44.626;11.176;2024-03-25T06:15:08;10.50;59.20
16402;DHT22;8310;44.626;11.176;2024-03-25T06:17:37;10.90;60.20
16402;DHT22;8310;44.626;11.176;2024-03-25T06:20:03;11.40;61.90
16402;DHT22;8310;44.626;11.176;2024-03-25T06:22:29;12.00;63.40
16402;DHT22;8310;44.626;11.176;2024-03-25T06:24:55;12.70;64.20
16402;DHT22;8310;44.626;11.176;2024-03-25T06:27:22;13.20;64.70
16402;DHT22;8310;44.626;11.176;2024-03-25T06:29:49;13.60;65.00
16402;DHT22;8310;44.626;11.176;2024-03-25T06:32:15;14.00;64.90
16402;DHT22;8310;44.626;11.176;2024-03-25T06:34:59;14.30;65.10
16402;DHT22;8310;44.626;11.176;2024-03-25T06:37:25;14.70;66.00
16402;DHT22;8310;44.626;11.176;2024-03-25T06:39:51;15.10;66.80
16402;DHT22;8310;44.626;11.176;2024-03-25T06:42:17;15.50;67.50
16402;DHT22;8310;44.626;11.176;2024-03-25T06:44:44;15.90;68.00
16402;DHT22;8310;44.626;11.176;2024-03-25T06:47:10;16.20;67.80
16402;DHT22;8310;44.626;11.176;2024-03-25T06:49:36;16.50;67.90
16402;DHT22;8310;44.626;11.176;2024-03-25T06:52:02;16.70;67.30
16402;DHT22;8310;44.626;11.176;2024-03-25T06:54:29;16.70;65.30
16402;DHT22;8310;44.626;11.176;2024-03-25T06:56:55;16.60;62.60
16402;DHT22;8310;44.626;11.176;2024-03-25T06:59:21;16.20;60.00
16402;DHT22;8310;44.626;11.176;2024-03-25T07:01:48;15.80;58.50
16402;DHT22;8310;44.626;11.176;2024-03-25T07:04:14;15.40;57.00
16402;DHT22;8310;44.626;11.176;2024-03-25T07:06:40;14.80;55.70
16402;DHT22;8310;44.626;11.176;2024-03-25T07:09:07;14.30;55.30
16402;DHT22;8310;44.626;11.176;2024-03-25T07:11:32;13.90;55.30
16402;DHT22;8310;44.626;11.176;2024-03-25T07:13:58;13.60;55.20
16402;DHT22;8310;44.626;11.176;2024-03-25T07:16:24;13.30;55.10
16402;DHT22;8310;44.626;11.176;2024-03-25T07:18:52;13.10;55.40
16402;DHT22;8310;44.626;11.176;2024-03-25T07:21:18;13.10;55.70
16402;DHT22;8310;44.626;11.176;2024-03-25T07:23:44;13.00;55.60
16402;DHT22;8310;44.626;11.176;2024-03-25T07:26:09;13.00;55.70
16402;DHT22;8310;44.626;11.176;2024-03-25T07:28:35;13.10;55.80
16402;DHT22;8310;44.626;11.176;2024-03-25T07:31:01;13.10;55.80
16402;DHT22;8310;44.626;11.176;2024-03-25T07:33:27;13.20;55.90
16402;DHT22;8310;44.626;11.176;2024-03-25T07:35:54;13.40;56.10
16402;DHT22;8310;44.626;11.176;2024-03-25T07:38:20;13.50;56.20
16402;DHT22;8310;44.626;11.176;2024-03-25T07:40:46;13.70;56.30
16402;DHT22;8310;44.626;11.176;2024-03-25T07:43:12;13.80;56.30
16402;DHT22;8310;44.626;11.176;2024-03-25T07:45:38;14.00;56.40
16402;DHT22;8310;44.626;11.176;2024-03-25T07:48:04;14.10;56.40
16402;DHT22;8310;44.626;11.176;2024-03-25T07:50:30;14.20;56.40
16402;DHT22;8310;44.626;11.176;2024-03-25T07:52:58;14.30;56.30
16402;DHT22;8310;44.626;11.176;2024-03-25T07:55:24;14.40;56.40
16402;DHT22;8310;44.626;11.176;2024-03-25T07:57:50;14.40;56.30
16402;DHT22;8310;44.626;11.176;2024-03-25T08:00:16;14.50;56.10
16402;DHT22;8310;44.626;11.176;2024-03-25T08:02:42;14.40;55.60
16402;DHT22;8310;44.626;11.176;2024-03-25T08:05:08;14.40;55.80
16402;DHT22;8310;44.626;11.176;2024-03-25T08:07:34;14.40;56.20
16402;DHT22;8310;44.626;11.176;2024-03-25T08:10:01;14.60;56.40
16402;DHT22;8310;44.626;11.176;2024-03-25T08:12:28;14.70;56.60
16402;DHT22;8310;44.626;11.176;2024-03-25T08:14:53;14.90;56.60
16402;DHT22;8310;44.626;11.176;2024-03-25T08:17:19;15.00;56.70
16402;DHT22;8310;44.626;11.176;2024-03-25T08:19:45;15.20;56.80
16402;DHT22;8310;44.626;11.176;2024-03-25T08:22:11;15.40;56.90
16402;DHT22;8310;44.626;11.176;2024-03-25T08:24:37;15.60;56.90
16402;DHT22;8310;44.626;11.176;2024-03-25T08:27:05;15.70;56.90
16402;DHT22;8310;44.626;11.176;2024-03-25T08:29:31;15.90;56.90
16402;DHT22;8310;44.626;11.176;2024-03-25T08:31:56;16.10;56.90
16402;DHT22;8310;44.626;11.176;2024-03-25T08:34:22;16.20;56.90
16402;DHT22;8310;44.626;11.176;2024-03-25T08:36:48;16.40;57.00
16402;DHT22;8310;44.626;11.176;2024-03-25T08:39:14;16.50;57.00
16402;DHT22;8310;44.626;11.176;2024-03-25T08:41:40;16.70;57.00
16402;DHT22;8310;44.626;11.176;2024-03-25T08:44:07;16.80;57.00
16402;DHT22;8310;44.626;11.176;2024-03-25T08:46:36;16.90;56.90
16402;DHT22;8310;44.626;11.176;2024-03-25T08:49:02;17.00;56.90
16402;DHT22;8310;44.626;11.176;2024-03-25T08:51:28;17.10;57.10
16402;DHT22;8310;44.626;11.176;2024-03-25T08:53:54;17.10;56.90
16402;DHT22;8310;44.626;11.176;2024-03-25T08:56:19;17.20;56.90
16402;DHT22;8310;44.626;11.176;2024-03-25T08:58:45;17.30;56.90
16402;DHT22;8310;44.626;11.176;2024-03-25T09:01:12;17.40;57.00
16402;DHT22;8310;44.626;11.176;2024-03-25T09:03:39;17.50;57.10
16402;DHT22;8310;44.626;11.176;2024-03-25T09:06:05;17.60;57.20
16402;DHT22;8310;44.626;11.176;2024-03-25T09:08:30;17.80;57.20
16402;DHT22;8310;44.626;11.176;2024-03-25T09:10:56;17.90;57.30
16402;DHT22;8310;44.626;11.176;2024-03-25T09:13:29;18.10;57.40
16402;DHT22;8310;44.626;11.176;2024-03-25T09:15:55;18.20;57.30
16402;DHT22;8310;44.626;11.176;2024-03-25T09:18:23;18.40;57.30
16402;DHT22;8310;44.626;11.176;2024-03-25T09:20:49;18.50;57.30
16402;DHT22;8310;44.626;11.176;2024-03-25T09:23:14;18.60;57.30
16402;DHT22;8310;44.626;11.176;2024-03-25T09:25:50;18.70;57.30
16402;DHT22;8310;44.626;11.176;2024-03-25T09:28:16;18.90;57.40
16402;DHT22;8310;44.626;11.176;2024-03-25T09:30:41;19.00;57.50
16402;DHT22;8310;44.626;11.176;2024-03-25T09:33:07;19.20;57.50
16402;DHT22;8310;44.626;11.176;2024-03-25T09:35:35;19.30;57.50
16402;DHT22;8310;44.626;11.176;2024-03-25T09:38:01;19.50;57.50
16402;DHT22;8310;44.626;11.176;2024-03-25T09:40:26;19.60;57.30
16402;DHT22;8310;44.626;11.176;2024-03-25T09:42:54;19.70;57.40
16402;DHT22;8310;44.626;11.176;2024-03-25T09:45:21;19.80;57.30
16402;DHT22;8310;44.626;11.176;2024-03-25T09:47:49;19.90;57.30
16402;DHT22;8310;44.626;11.176;2024-03-25T09:50:16;20.00;57.40
16402;DHT22;8310;44.626;11.176;2024-03-25T09:52:43;20.10;57.40
16402;DHT22;8310;44.626;11.176;2024-03-25T09:55:09;20.20;57.50
16402;DHT22;8310;44.626;11.176;2024-03-25T09:57:35;20.40;57.40
16402;DHT22;8310;44.626;11.176;2024-03-25T10:00:01;20.40;57.40
16402;DHT22;8310;44.626;11.176;2024-03-25T10:02:28;20.60;57.50
16402;DHT22;8310;44.626;11.176;2024-03-25T10:04:55;20.70;57.40
16402;DHT22;8310;44.626;11.176;2024-03-25T10:07:21;20.70;57.40
16402;DHT22;8310;44.626;11.176;2024-03-25T10:09:48;20.80;57.20
16402;DHT22;8310;44.626;11.176;2024-03-25T10:12:14;20.90;57.30
16402;DHT22;8310;44.626;11.176;2024-03-25T10:14:40;21.00;57.40
16402;DHT22;8310;44.626;11.176;2024-03-25T10:17:06;21.10;57.30
16402;DHT22;8310;44.626;11.176;2024-03-25T10:19:32;21.10;57.30
16402;DHT22;8310;44.626;11.176;2024-03-25T10:22:02;21.20;57.40
16402;DHT22;8310;44.626;11.176;2024-03-25T10:34:51;21.10;56.70
16402;DHT22;8310;44.626;11.176;2024-03-25T10:39:54;21.30;57.10
16402;DHT22;8310;44.626;11.176;2024-03-25T10:42:22;21.50;57.20
16402;DHT22;8310;44.626;11.176;2024-03-25T10:44:49;21.60;57.20
16402;DHT22;8310;44.626;11.176;2024-03-25T10:47:16;21.70;56.50
16402;DHT22;8310;44.626;11.176;2024-03-25T10:49:44;21.60;56.10
16402;DHT22;8310;44.626;11.176;2024-03-25T10:52:12;21.50;56.50
16402;DHT22;8310;44.626;11.176;2024-03-25T10:54:39;21.60;56.60
16402;DHT22;8310;44.626;11.176;2024-03-25T10:57:05;21.60;56.90
16402;DHT22;8310;44.626;11.176;2024-03-25T10:59:31;21.80;57.20
16402;DHT22;8310;44.626;11.176;2024-03-25T11:01:57;21.90;57.40
16402;DHT22;8310;44.626;11.176;2024-03-25T11:04:23;22.10;57.40
16402;DHT22;8310;44.626;11.176;2024-03-25T11:06:49;22.20;57.50
16402;DHT22;8310;44.626;11.176;2024-03-25T11:09:23;22.40;57.50
16402;DHT22;8310;44.626;11.176;2024-03-25T11:11:57;22.50;57.50
16402;DHT22;8310;44.626;11.176;2024-03-25T11:14:24;22.70;57.60
16402;DHT22;8310;44.626;11.176;2024-03-25T11:16:51;22.80;57.60
16402;DHT22;8310;44.626;11.176;2024-03-25T11:19:17;23.00;57.50
16402;DHT22;8310;44.626;11.176;2024-03-25T11:21:43;23.00;57.40
16402;DHT22;8310;44.626;11.176;2024-03-25T11:24:09;23.10;57.40
16402;DHT22;8310;44.626;11.176;2024-03-25T11:26:40;23.20;57.30
16402;DHT22;8310;44.626;11.176;2024-03-25T11:29:06;23.20;57.20
16402;DHT22;8310;44.626;11.176;2024-03-25T11:31:32;23.30;57.20
16402;DHT22;8310;44.626;11.176;2024-03-25T11:34:02;23.30;57.30
16402;DHT22;8310;44.626;11.176;2024-03-25T11:36:29;23.40;57.20
16402;DHT22;8310;44.626;11.176;2024-03-25T11:38:59;23.50;57.30
16402;DHT22;8310;44.626;11.176;2024-03-25T11:41:24;23.60;57.30
16402;DHT22;8310;44.626;11.176;2024-03-25T11:43:52;23.60;57.20
16402;DHT22;8310;44.626;11.176;2024-03-25T11:46:18;23.70;57.30
16402;DHT22;8310;44.626;11.176;2024-03-25T11:48:44;23.80;57.30
16402;DHT22;8310;44.626;11.176;2024-03-25T11:51:11;23.80;57.30
16402;DHT22;8310;44.626;11.176;2024-03-25T11:53:37;23.90;57.30
16402;DHT22;8310;44.626;11.176;2024-03-25T11:56:03;24.00;57.30
16402;DHT22;8310;44.626;11.176;2024-03-25T11:58:29;24.00;56.70
16402;DHT22;8310;44.626;11.176;2024-03-25T12:00:56;23.90;56.10
16402;DHT22;8310;44.626;11.176;2024-03-25T12:03:22;23.70;55.90
16402;DHT22;8310;44.626;11.176;2024-03-25T12:05:48;23.60;56.30
16402;DHT22;8310;44.626;11.176;2024-03-25T12:08:14;23.70;56.70
16402;DHT22;8310;44.626;11.176;2024-03-25T12:10:40;23.70;56.90
16402;DHT22;8310;44.626;11.176;2024-03-25T12:13:25;23.80;56.70
16402;DHT22;8310;44.626;11.176;2024-03-25T12:15:51;23.80;56.50
16402;DHT22;8310;44.626;11.176;2024-03-25T12:18:18;23.80;56.70
16402;DHT22;8310;44.626;11.176;2024-03-25T12:20:44;23.90;57.00
16402;DHT22;8310;44.626;11.176;2024-03-25T12:23:10;24.10;57.30
16402;DHT22;8310;44.626;11.176;2024-03-25T12:25:36;24.20;57.40
16402;DHT22;8310;44.626;11.176;2024-03-25T12:28:07;24.40;57.50
16402;DHT22;8310;44.626;11.176;2024-03-25T12:30:33;24.60;57.30
16402;DHT22;8310;44.626;11.176;2024-03-25T12:33:00;24.60;57.10
16402;DHT22;8310;44.626;11.176;2024-03-25T12:35:27;24.60;57.00
16402;DHT22;8310;44.626;11.176;2024-03-25T12:37:53;24.70;57.30
16402;DHT22;8310;44.626;11.176;2024-03-25T12:40:25;24.80;57.30
16402;DHT22;8310;44.626;11.176;2024-03-25T12:42:51;24.90;57.20
16402;DHT22;8310;44.626;11.176;2024-03-25T12:45:17;24.90;57.10
16402;DHT22;8310;44.626;11.176;2024-03-25T12:47:43;25.00;57.20
16402;DHT22;8310;44.626;11.176;2024-03-25T12:50:09;25.10;56.90
16402;DHT22;8310;44.626;11.176;2024-03-25T12:52:37;25.00;56.40
16402;DHT22;8310;44.626;11.176;2024-03-25T12:55:03;24.80;55.90
16402;DHT22;8310;44.626;11.176;2024-03-25T12:57:29;24.70;55.90
16402;DHT22;8310;44.626;11.176;2024-03-25T12:59:54;24.60;56.00
16402;DHT22;8310;44.626;11.176;2024-03-25T13:02:20;24.40;56.00
16402;DHT22;8310;44.626;11.176;2024-03-25T13:04:46;24.40;56.10
16402;DHT22;8310;44.626;11.176;2024-03-25T13:07:12;24.40;56.20
16402;DHT22;8310;44.626;11.176;2024-03-25T13:09:39;24.30;56.00
16402;DHT22;8310;44.626;11.176;2024-03-25T13:12:05;24.20;56.00
16402;DHT22;8310;44.626;11.176;2024-03-25T13:14:32;24.20;56.00
16402;DHT22;8310;44.626;11.176;2024-03-25T13:16:57;24.10;55.80
16402;DHT22;8310;44.626;11.176;2024-03-25T13:19:23;24.10;55.90
16402;DHT22;8310;44.626;11.176;2024-03-25T13:21:49;24.00;55.70
16402;DHT22;8310;44.626;11.176;2024-03-25T13:24:15;23.80;55.00
16402;DHT22;8310;44.626;11.176;2024-03-25T13:26:42;23.60;54.80
16402;DHT22;8310;44.626;11.176;2024-03-25T13:29:09;23.40;54.90
16402;DHT22;8310;44.626;11.176;2024-03-25T13:31:35;23.30;55.00
16402;DHT22;8310;44.626;11.176;2024-03-25T13:34:00;23.20;55.10
16402;DHT22;8310;44.626;11.176;2024-03-25T13:36:26;23.10;55.40
16402;DHT22;8310;44.626;11.176;2024-03-25T13:38:52;23.10;55.60
16402;DHT22;8310;44.626;11.176;2024-03-25T13:41:18;23.20;55.80
16402;DHT22;8310;44.626;11.176;2024-03-25T13:43:46;23.20;55.90
16402;DHT22;8310;44.626;11.176;2024-03-25T13:46:12;23.30;55.30
16402;DHT22;8310;44.626;11.176;2024-03-25T13:48:38;23.10;54.60
16402;DHT22;8310;44.626;11.176;2024-03-25T13:51:04;22.90;54.50
16402;DHT22;8310;44.626;11.176;2024-03-25T13:53:30;22.70;54.40
16402;DHT22;8310;44.626;11.176;2024-03-25T13:55:56;22.50;53.90
16402;DHT22;8310;44.626;11.176;2024-03-25T13:58:22;22.20;53.70
16402;DHT22;8310;44.626;11.176;2024-03-25T14:00:49;22.00;54.00
16402;DHT22;8310;44.626;11.176;2024-03-25T14:03:15;21.90;54.40
16402;DHT22;8310;44.626;11.176;2024-03-25T14:05:41;21.90;54.50
16402;DHT22;8310;44.626;11.176;2024-03-25T14:08:07;21.80;54.40
16402;DHT22;8310;44.626;11.176;2024-03-25T14:10:33;21.60;54.00
16402;DHT22;8310;44.626;11.176;2024-03-25T14:12:59;21.50;54.30
16402;DHT22;8310;44.626;11.176;2024-03-25T14:15:25;21.50;54.70
16402;DHT22;8310;44.626;11.176;2024-03-25T14:17:53;21.60;55.10
16402;DHT22;8310;44.626;11.176;2024-03-25T14:20:19;21.70;55.00
16402;DHT22;8310;44.626;11.176;2024-03-25T14:22:45;21.70;54.50
16402;DHT22;8310;44.626;11.176;2024-03-25T14:25:11;21.60;54.40
16402;DHT22;8310;44.626;11.176;2024-03-25T14:27:37;21.50;54.40
16402;DHT22;8310;44.626;11.176;2024-03-25T14:30:03;21.50;54.60
16402;DHT22;8310;44.626;11.176;2024-03-25T14:32:29;21.40;54.70
16402;DHT22;8310;44.626;11.176;2024-03-25T14:34:57;21.50;55.00
16402;DHT22;8310;44.626;11.176;2024-03-25T14:37:23;21.50;55.00
16402;DHT22;8310;44.626;11.176;2024-03-25T14:39:49;21.60;55.00
16402;DHT22;8310;44.626;11.176;2024-03-25T14:42:15;21.50;54.70
16402;DHT22;8310;44.626;11.176;2024-03-25T14:44:41;21.50;54.90
16402;DHT22;8310;44.626;11.176;2024-03-25T14:47:07;21.60;55.00
16402;DHT22;8310;44.626;11.176;2024-03-25T14:49:33;21.60;54.90
16402;DHT22;8310;44.626;11.176;2024-03-25T14:54:42;21.60;55.00
16402;DHT22;8310;44.626;11.176;2024-03-25T14:57:08;21.60;55.00
16402;DHT22;8310;44.626;11.176;2024-03-25T14:59:34;21.60;55.10
16402;DHT22;8310;44.626;11.176;2024-03-25T15:02:00;21.70;55.10
16402;DHT22;8310;44.626;11.176;2024-03-25T15:04:26;21.70;54.90
16402;DHT22;8310;44.626;11.176;2024-03-25T15:06:52;21.60;55.00
16402;DHT22;8310;44.626;11.176;2024-03-25T15:09:18;21.70;55.10
16402;DHT22;8310;44.626;11.176;2024-03-25T15:11:46;21.70;54.90
16402;DHT22;8310;44.626;11.176;2024-03-25T15:14:12;21.60;54.50
16402;DHT22;8310;44.626;11.176;2024-03-25T15:16:38;21.50;54.50
16402;DHT22;8310;44.626;11.176;2024-03-25T15:19:04;21.40;54.70
16402;DHT22;8310;44.626;11.176;2024-03-25T15:21:30;21.40;54.70
16402;DHT22;8310;44.626;11.176;2024-03-25T15:23:56;21.40;54.60
16402;DHT22;8310;44.626;11.176;2024-03-25T15:26:23;21.30;54.40
16402;DHT22;8310;44.626;11.176;2024-03-25T15:28:50;21.30;54.60
16402;DHT22;8310;44.626;11.176;2024-03-25T15:31:16;21.30;54.90
16402;DHT22;8310;44.626;11.176;2024-03-25T15:33:42;21.30;54.90
16402;DHT22;8310;44.626;11.176;2024-03-25T15:36:08;21.30;54.50
16402;DHT22;8310;44.626;11.176;2024-03-25T15:38:34;21.20;54.30
16402;DHT22;8310;44.626;11.176;2024-03-25T15:41:00;21.10;54.20
16402;DHT22;8310;44.626;11.176;2024-03-25T15:43:26;21.00;54.10
16402;DHT22;8310;44.626;11.176;2024-03-25T15:45:57;20.90;54.20